createdAt,value
2023-05-13T00:00:55.854Z,11.61
2023-05-13T00:01:57.973Z,11.60
2023-05-13T00:03:00.170Z,11.59
2023-05-13T00:04:03.172Z,11.58
2023-05-13T00:05:08.439Z,11.56
2023-05-13T00:06:11.521Z,11.55
2023-05-13T00:07:13.813Z,11.53
2023-05-13T00:08:15.973Z,11.52
2023-05-13T00:09:18.258Z,11.51
2023-05-13T00:10:21.110Z,11.49
2023-05-13T00:11:23.888Z,11.48
2023-05-13T00:12:25.829Z,11.47
2023-05-13T00:17:48.911Z,11.40
2023-05-13T00:18:51.304Z,11.36
2023-05-13T00:19:53.714Z,11.35
2023-05-13T00:20:56.409Z,11.32
2023-05-13T00:21:58.652Z,11.31
2023-05-13T00:23:00.744Z,11.28
2023-05-13T00:24:06.098Z,11.25
2023-05-13T00:25:09.256Z,11.24
2023-05-13T00:26:11.779Z,11.22
2023-05-13T00:27:13.757Z,11.20
2023-05-13T00:28:15.766Z,11.20
2023-05-13T00:29:17.940Z,11.18
2023-05-13T00:30:20.769Z,11.17
2023-05-13T00:31:23.613Z,11.15
2023-05-13T00:32:26.319Z,11.15
2023-05-13T00:33:29.573Z,11.14
2023-05-13T00:34:31.536Z,11.12
2023-05-13T00:35:33.666Z,11.11
2023-05-13T00:36:36.069Z,11.12
2023-05-13T00:37:38.860Z,11.11
2023-05-13T00:38:41.163Z,11.10
2023-05-13T00:39:43.297Z,11.08
2023-05-13T00:40:46.659Z,11.08
2023-05-13T00:41:49.217Z,11.07
2023-05-13T00:42:51.199Z,11.06
2023-05-13T00:43:57.060Z,11.06
2023-05-13T00:44:59.155Z,11.05
2023-05-13T00:46:01.434Z,11.04
2023-05-13T00:47:05.404Z,11.02
2023-05-13T00:48:08.002Z,11.01
2023-05-13T00:49:10.288Z,11.01
2023-05-13T00:50:13.960Z,10.98
2023-05-13T00:51:16.263Z,10.98
2023-05-13T00:52:19.483Z,10.96
2023-05-13T00:53:21.985Z,10.94
2023-05-13T00:54:25.154Z,10.94
2023-05-13T00:55:27.321Z,10.92
2023-05-13T00:56:29.788Z,10.92
2023-05-13T00:57:32.394Z,10.91
2023-05-13T00:58:34.549Z,10.90
2023-05-13T00:59:36.608Z,10.89
2023-05-13T01:00:53.820Z,10.89
2023-05-13T01:02:13.961Z,10.89
2023-05-13T01:07:54.564Z,10.84
2023-05-13T01:08:59.806Z,10.82
2023-05-13T01:10:15.112Z,10.80
2023-05-13T01:11:20.963Z,10.77
2023-05-13T01:12:35.716Z,10.75
2023-05-13T01:13:38.124Z,10.72
2023-05-13T01:14:43.905Z,10.71
2023-05-13T01:17:18.693Z,10.77
2023-05-13T01:18:24.546Z,10.65
2023-05-13T01:19:44.600Z,10.62
2023-05-13T01:20:46.785Z,10.62
2023-05-13T01:21:52.832Z,10.60
2023-05-13T01:22:54.978Z,10.61
2023-05-13T01:23:57.272Z,10.60
2023-05-13T01:25:00.473Z,10.59
2023-05-13T01:26:03.439Z,10.58
2023-05-13T01:27:06.847Z,10.57
2023-05-13T01:28:08.875Z,10.56
2023-05-13T01:29:11.764Z,10.56
2023-05-13T01:30:14.668Z,10.55
2023-05-13T01:31:18.642Z,10.55
2023-05-13T01:32:23.114Z,10.54
2023-05-13T01:33:25.454Z,10.53
2023-05-13T01:34:28.935Z,10.52
2023-05-13T01:35:31.214Z,10.51
2023-05-13T01:36:34.763Z,10.51
2023-05-13T01:37:37.045Z,10.51
2023-05-13T01:38:39.241Z,10.50
2023-05-13T01:39:41.398Z,10.50
2023-05-13T01:40:45.385Z,10.49
2023-05-13T01:41:47.545Z,10.49
2023-05-13T01:42:49.733Z,10.48
2023-05-13T01:43:51.776Z,10.49
2023-05-13T01:44:53.922Z,10.48
2023-05-13T01:45:56.647Z,10.48
2023-05-13T01:46:59.975Z,10.49
2023-05-13T01:48:03.183Z,10.48
2023-05-13T01:49:07.391Z,10.48
2023-05-13T01:50:11.878Z,10.47
2023-05-13T01:51:15.662Z,10.46
2023-05-13T01:52:18.236Z,10.44
2023-05-13T01:53:21.086Z,10.45
2023-05-13T01:54:24.498Z,10.44
2023-05-13T01:55:28.432Z,10.43
2023-05-13T01:56:32.901Z,10.41
2023-05-13T01:57:35.117Z,10.41
2023-05-13T01:58:39.297Z,10.39
2023-05-13T01:59:41.294Z,10.36
2023-05-13T02:00:44.134Z,10.35
2023-05-13T02:01:48.096Z,10.35
2023-05-13T02:02:50.588Z,10.34
2023-05-13T02:03:52.972Z,10.32
2023-05-13T02:04:55.458Z,10.32
2023-05-13T02:05:58.136Z,10.31
2023-05-13T02:07:01.384Z,10.31
2023-05-13T02:08:08.183Z,10.30
2023-05-13T02:09:10.171Z,10.29
2023-05-13T02:10:14.435Z,10.29
2023-05-13T02:11:16.414Z,10.27
2023-05-13T02:12:18.521Z,10.27
2023-05-13T02:13:20.984Z,10.26
2023-05-13T02:14:23.055Z,10.25
2023-05-13T02:15:25.209Z,10.26
2023-05-13T02:16:27.670Z,10.25
2023-05-13T02:17:29.819Z,10.25
2023-05-13T02:18:32.251Z,10.24
2023-05-13T02:19:34.943Z,10.23
2023-05-13T02:20:37.477Z,10.23
2023-05-13T02:21:39.899Z,10.23
2023-05-13T02:22:43.952Z,10.23
2023-05-13T02:23:45.913Z,10.23
2023-05-13T02:24:48.089Z,10.21
2023-05-13T02:25:50.185Z,10.22
2023-05-13T02:26:52.931Z,10.21
2023-05-13T02:27:55.617Z,10.22
2023-05-13T02:28:58.527Z,10.21
2023-05-13T02:30:00.732Z,10.21
2023-05-13T02:31:02.971Z,10.20
2023-05-13T02:32:08.022Z,10.20
2023-05-13T02:33:10.344Z,10.20
2023-05-13T02:34:15.645Z,10.19
2023-05-13T02:35:20.533Z,10.20
2023-05-13T02:36:23.023Z,10.20
2023-05-13T02:37:25.524Z,10.21
2023-05-13T02:38:29.559Z,10.21
2023-05-13T02:39:32.824Z,10.22
2023-05-13T02:40:36.352Z,10.22
2023-05-13T02:41:39.752Z,10.23
2023-05-13T02:42:42.466Z,10.25
2023-05-13T02:43:45.899Z,10.25
2023-05-13T02:44:47.908Z,10.25
2023-05-13T02:45:50.365Z,10.25
2023-05-13T02:46:52.576Z,10.26
2023-05-13T02:47:55.325Z,10.27
2023-05-13T02:48:58.858Z,10.27
2023-05-13T02:50:04.896Z,10.28
2023-05-13T02:51:07.068Z,10.31
2023-05-13T02:52:09.212Z,10.31
2023-05-13T02:53:11.832Z,10.32
2023-05-13T02:54:15.822Z,10.34
2023-05-13T02:55:19.496Z,10.34
2023-05-13T02:56:22.077Z,10.35
2023-05-13T02:57:24.192Z,10.37
2023-05-13T02:58:26.961Z,10.37
2023-05-13T02:59:29.878Z,10.39
2023-05-13T03:00:33.054Z,10.41
2023-05-13T03:01:35.169Z,10.42
2023-05-13T03:02:37.912Z,10.43
2023-05-13T03:03:40.360Z,10.44
2023-05-13T03:04:42.741Z,10.45
2023-05-13T03:05:44.983Z,10.46
2023-05-13T03:06:51.210Z,10.47
2023-05-13T03:07:53.520Z,10.48
2023-05-13T03:08:55.612Z,10.50
2023-05-13T03:09:57.979Z,10.51
2023-05-13T03:11:01.457Z,10.53
2023-05-13T03:12:07.104Z,10.54
2023-05-13T03:13:09.043Z,10.55
2023-05-13T03:14:11.310Z,10.56
2023-05-13T03:15:14.751Z,10.58
2023-05-13T03:16:17.869Z,10.60
2023-05-13T03:17:24.368Z,10.62
2023-05-13T03:18:26.688Z,10.65
2023-05-13T03:19:29.068Z,10.67
2023-05-13T03:20:31.776Z,10.70
2023-05-13T03:21:34.953Z,10.71
2023-05-13T03:22:37.398Z,10.74
2023-05-13T03:23:40.182Z,10.77
2023-05-13T03:24:42.885Z,10.79
2023-05-13T03:25:45.559Z,10.82
2023-05-13T03:26:49.252Z,10.84
2023-05-13T03:27:51.462Z,10.86
2023-05-13T03:28:55.333Z,10.87
2023-05-13T03:30:01.628Z,10.87
2023-05-13T03:31:04.630Z,10.91
2023-05-13T03:32:08.872Z,10.94
2023-05-13T03:33:10.887Z,10.98
2023-05-13T03:34:12.903Z,11.01
2023-05-13T03:35:15.338Z,11.04
2023-05-13T03:36:19.139Z,11.07
2023-05-13T03:37:21.290Z,11.11
2023-05-13T03:38:24.119Z,11.14
2023-05-13T03:39:26.510Z,11.17
2023-05-13T03:40:28.635Z,11.20
2023-05-13T03:41:32.681Z,11.23
2023-05-13T03:42:34.811Z,11.27
2023-05-13T03:43:38.014Z,11.29
2023-05-13T03:44:42.055Z,11.32
2023-05-13T03:45:46.035Z,11.35
2023-05-13T03:46:49.241Z,11.38
2023-05-13T03:47:51.868Z,11.41
2023-05-13T03:48:54.675Z,11.45
2023-05-13T03:49:57.377Z,11.49
2023-05-13T03:51:01.334Z,11.52
2023-05-13T03:52:06.683Z,11.55
2023-05-13T03:53:10.150Z,11.58
2023-05-13T03:54:12.462Z,11.61
2023-05-13T03:55:16.004Z,11.64
2023-05-13T03:56:19.505Z,11.67
2023-05-13T03:57:21.623Z,11.70
2023-05-13T03:58:24.378Z,11.75
2023-05-13T03:59:26.392Z,11.79
2023-05-13T04:00:28.799Z,11.83
2023-05-13T04:01:31.046Z,11.85
2023-05-13T04:02:33.191Z,11.88
2023-05-13T04:03:36.279Z,11.90
2023-05-13T04:04:38.445Z,11.94
2023-05-13T04:05:43.844Z,11.97
2023-05-13T04:06:47.631Z,12.00
2023-05-13T04:07:49.705Z,12.02
2023-05-13T04:08:51.719Z,12.06
2023-05-13T04:09:53.860Z,12.09
2023-05-13T04:10:56.453Z,12.13
2023-05-13T04:12:00.396Z,12.16
2023-05-13T04:13:02.579Z,12.20
2023-05-13T04:14:04.701Z,12.22
2023-05-13T04:15:10.168Z,12.27
2023-05-13T04:16:12.421Z,12.28
2023-05-13T04:17:14.685Z,12.31
2023-05-13T04:18:17.305Z,12.35
2023-05-13T04:19:20.179Z,12.36
2023-05-13T04:20:22.932Z,12.40
2023-05-13T04:21:25.412Z,12.43
2023-05-13T04:22:27.456Z,12.47
2023-05-13T04:23:29.741Z,12.51
2023-05-13T04:24:33.018Z,12.54
2023-05-13T04:25:35.346Z,12.59
2023-05-13T04:26:37.945Z,12.62
2023-05-13T04:27:40.105Z,12.64
2023-05-13T04:28:44.330Z,12.68
2023-05-13T04:29:46.340Z,12.73
2023-05-13T04:30:49.070Z,12.75
2023-05-13T04:31:51.607Z,12.79
2023-05-13T04:32:54.313Z,12.80
2023-05-13T04:33:56.948Z,12.84
2023-05-13T04:35:00.223Z,12.87
2023-05-13T04:36:06.542Z,12.91
2023-05-13T04:37:08.593Z,12.95
2023-05-13T04:38:11.787Z,12.99
2023-05-13T04:39:14.646Z,13.01
2023-05-13T04:40:19.282Z,13.03
2023-05-13T04:41:23.078Z,13.08
2023-05-13T04:42:25.090Z,13.12
2023-05-13T04:43:27.247Z,13.17
2023-05-13T04:44:31.348Z,13.19
2023-05-13T04:45:33.835Z,13.22
2023-05-13T04:46:37.784Z,13.27
2023-05-13T04:47:40.404Z,13.32
2023-05-13T04:48:42.516Z,13.36
2023-05-13T04:49:45.551Z,13.41
2023-05-13T04:50:50.583Z,13.44
2023-05-13T04:51:53.697Z,13.49
2023-05-13T04:52:56.392Z,13.56
2023-05-13T04:53:58.758Z,13.61
2023-05-13T04:55:01.430Z,13.66
2023-05-13T04:56:07.762Z,13.72
2023-05-13T04:57:09.828Z,13.77
2023-05-13T04:58:12.027Z,13.85
2023-05-13T04:59:14.158Z,13.92
2023-05-13T05:00:17.959Z,14.00
2023-05-13T05:01:22.056Z,14.07
2023-05-13T05:02:25.944Z,14.15
2023-05-13T05:03:28.784Z,14.23
2023-05-13T05:04:31.323Z,14.29
2023-05-13T05:05:33.850Z,14.34
2023-05-13T05:06:36.993Z,14.39
2023-05-13T05:07:39.956Z,14.42
2023-05-13T05:08:42.935Z,14.45
2023-05-13T05:09:45.208Z,14.50
2023-05-13T05:10:47.798Z,14.54
2023-05-13T05:11:50.880Z,14.56
2023-05-13T05:12:54.801Z,14.58
2023-05-13T05:13:58.782Z,14.61
2023-05-13T05:15:00.897Z,14.64
2023-05-13T05:16:03.971Z,14.67
2023-05-13T05:17:08.060Z,14.70
2023-05-13T05:18:10.611Z,14.72
2023-05-13T05:19:14.685Z,14.74
2023-05-13T05:20:17.870Z,14.76
2023-05-13T05:21:23.688Z,14.79
2023-05-13T05:22:26.489Z,14.82
2023-05-13T05:23:28.671Z,14.85
2023-05-13T05:24:31.504Z,14.90
2023-05-13T05:25:33.640Z,14.96
2023-05-13T05:26:35.836Z,15.00
2023-05-13T05:27:38.920Z,15.05
2023-05-13T05:28:42.439Z,15.12
2023-05-13T05:29:44.490Z,15.16
2023-05-13T05:30:47.047Z,15.20
2023-05-13T05:31:53.912Z,15.26
2023-05-13T05:32:56.504Z,15.31
2023-05-13T05:33:59.249Z,15.38
2023-05-13T05:35:01.385Z,15.42
2023-05-13T05:36:07.181Z,15.47
2023-05-13T05:37:09.814Z,15.52
2023-05-13T05:38:13.773Z,15.60
2023-05-13T05:39:16.567Z,15.64
2023-05-13T05:40:21.936Z,15.70
2023-05-13T05:41:25.160Z,15.75
2023-05-13T05:42:27.339Z,15.83
2023-05-13T05:43:29.311Z,15.89
2023-05-13T05:44:31.418Z,15.96
2023-05-13T05:45:37.049Z,16.01
2023-05-13T05:46:40.779Z,16.08
2023-05-13T05:47:43.572Z,16.15
2023-05-13T05:48:47.271Z,16.20
2023-05-13T05:49:49.474Z,16.27
2023-05-13T05:50:52.290Z,16.31
2023-05-13T05:51:56.130Z,16.35
2023-05-13T05:53:00.270Z,16.40
2023-05-13T05:54:03.085Z,16.45
2023-05-13T05:55:09.548Z,16.51
2023-05-13T05:56:12.390Z,16.59
2023-05-13T05:57:14.440Z,16.68
2023-05-13T05:58:16.730Z,16.79
2023-05-13T05:59:19.133Z,16.87
2023-05-13T06:00:22.823Z,16.96
2023-05-13T06:01:25.240Z,17.05
2023-05-13T06:02:28.151Z,17.11
2023-05-13T06:03:30.747Z,17.17
2023-05-13T06:04:33.736Z,17.21
2023-05-13T06:05:36.168Z,17.24
2023-05-13T06:06:39.485Z,17.25
2023-05-13T06:07:42.126Z,17.28
2023-05-13T06:08:44.356Z,17.28
2023-05-13T06:09:46.374Z,17.28
2023-05-13T06:10:49.228Z,17.31
2023-05-13T06:11:52.018Z,17.34
2023-05-13T06:12:54.247Z,17.39
2023-05-13T06:13:56.605Z,17.42
2023-05-13T06:14:59.587Z,17.47
2023-05-13T06:16:01.859Z,17.50
2023-05-13T06:17:05.126Z,17.54
2023-05-13T06:18:07.796Z,17.59
2023-05-13T06:19:11.357Z,17.61
2023-05-13T06:20:15.080Z,17.63
2023-05-13T06:21:17.394Z,17.68
2023-05-13T06:22:19.548Z,17.69
2023-05-13T06:23:21.855Z,17.73
2023-05-13T06:24:24.849Z,17.75
2023-05-13T06:25:26.852Z,17.79
2023-05-13T06:26:29.075Z,17.83
2023-05-13T06:27:31.193Z,17.88
2023-05-13T06:28:33.321Z,17.90
2023-05-13T06:29:35.502Z,17.92
2023-05-13T06:30:38.058Z,17.95
2023-05-13T06:31:40.317Z,17.95
2023-05-13T06:32:53.571Z,17.97
2023-05-13T06:33:46.733Z,17.95
2023-05-13T06:34:48.824Z,17.97
2023-05-13T06:35:50.956Z,17.99
2023-05-13T06:36:55.508Z,17.99
2023-05-13T06:37:58.297Z,18.01
2023-05-13T06:39:00.386Z,18.05
2023-05-13T06:40:05.387Z,18.10
2023-05-13T06:41:09.494Z,18.13
2023-05-13T06:42:14.286Z,18.17
2023-05-13T06:49:05.536Z,18.36
2023-05-13T06:50:12.353Z,18.29
2023-05-13T06:51:14.455Z,18.32
2023-05-13T06:52:16.509Z,18.34
2023-05-13T06:53:18.520Z,18.35
2023-05-13T06:54:20.518Z,18.40
2023-05-13T06:55:22.733Z,18.44
2023-05-13T06:56:25.975Z,18.48
2023-05-13T06:57:41.298Z,18.52
2023-05-13T06:58:32.064Z,18.56
2023-05-13T06:59:35.960Z,18.59
2023-05-13T07:00:40.449Z,18.63
2023-05-13T07:01:42.670Z,18.66
2023-05-13T07:02:44.699Z,18.68
2023-05-13T07:03:47.054Z,18.70
2023-05-13T07:04:49.190Z,18.75
2023-05-13T07:05:51.404Z,18.78
2023-05-13T07:06:56.141Z,18.79
2023-05-13T07:07:58.188Z,18.81
2023-05-13T07:09:00.321Z,18.81
2023-05-13T07:10:02.636Z,18.82
2023-05-13T07:11:04.677Z,18.87
2023-05-13T07:12:06.746Z,18.91
2023-05-13T07:13:10.732Z,18.93
2023-05-13T07:14:12.985Z,18.99
2023-05-13T07:15:15.039Z,19.08
2023-05-13T07:16:17.238Z,19.14
2023-05-13T07:17:19.409Z,19.19
2023-05-13T07:18:21.791Z,19.20
2023-05-13T07:19:24.039Z,19.20
2023-05-13T07:20:26.892Z,19.23
2023-05-13T07:21:29.558Z,19.24
2023-05-13T07:22:31.606Z,19.28
2023-05-13T07:23:33.753Z,19.32
2023-05-13T07:24:35.760Z,19.31
2023-05-13T07:25:37.768Z,19.33
2023-05-13T07:26:40.055Z,19.37
2023-05-13T07:27:42.248Z,19.42
2023-05-13T07:28:44.564Z,19.45
2023-05-13T07:29:46.777Z,19.51
2023-05-13T07:30:48.990Z,19.54
2023-05-13T07:31:51.552Z,19.60
2023-05-13T07:32:54.222Z,19.64
2023-05-13T07:33:57.071Z,19.62
2023-05-13T07:34:59.035Z,19.64
2023-05-13T07:36:00.957Z,19.62
2023-05-13T07:37:02.936Z,19.65
2023-05-13T07:38:06.706Z,19.70
2023-05-13T07:39:08.965Z,19.75
2023-05-13T07:40:13.365Z,19.78
2023-05-13T07:41:15.821Z,19.78
2023-05-13T07:42:17.896Z,19.74
2023-05-13T07:43:19.998Z,19.76
2023-05-13T07:44:22.075Z,19.78
2023-05-13T07:45:24.386Z,19.82
2023-05-13T07:46:27.400Z,19.86
2023-05-13T07:47:29.485Z,19.88
2023-05-13T07:48:31.843Z,19.89
2023-05-13T07:49:33.863Z,19.91
2023-05-13T07:50:36.629Z,19.95
2023-05-13T07:51:39.969Z,19.98
2023-05-13T07:52:42.223Z,20.01
2023-05-13T07:53:44.772Z,20.02
2023-05-13T07:54:47.752Z,20.07
2023-05-13T07:55:49.968Z,20.12
2023-05-13T07:56:52.022Z,20.16
2023-05-13T07:57:54.139Z,20.20
2023-05-13T07:58:58.191Z,20.23
2023-05-13T08:00:00.378Z,20.25
2023-05-13T08:01:02.846Z,20.30
2023-05-13T08:02:06.656Z,20.33
2023-05-13T08:03:08.914Z,20.34
2023-05-13T08:04:11.797Z,20.39
2023-05-13T08:05:14.514Z,20.42
2023-05-13T08:06:16.529Z,20.47
2023-05-13T08:07:18.741Z,20.51
2023-05-13T08:08:20.645Z,20.54
2023-05-13T08:09:22.690Z,20.59
2023-05-13T08:10:26.761Z,20.62
2023-05-13T08:11:28.821Z,20.66
2023-05-13T08:12:30.992Z,20.68
2023-05-13T08:13:33.300Z,20.73
2023-05-13T08:14:35.988Z,20.75
2023-05-13T08:15:38.099Z,20.75
2023-05-13T08:16:41.064Z,20.75
2023-05-13T08:17:43.673Z,20.75
2023-05-13T08:18:46.980Z,20.74
2023-05-13T08:19:50.191Z,20.74
2023-05-13T08:20:53.408Z,20.75
2023-05-13T08:21:55.629Z,20.76
2023-05-13T08:22:57.795Z,20.77
2023-05-13T08:23:59.813Z,20.79
2023-05-13T08:25:02.070Z,20.75
2023-05-13T08:26:04.817Z,20.81
2023-05-13T08:27:06.909Z,20.86
2023-05-13T08:28:08.995Z,20.87
2023-05-13T08:29:10.980Z,20.90
2023-05-13T08:30:16.951Z,20.88
2023-05-13T08:31:19.028Z,20.90
2023-05-13T08:32:21.143Z,20.91
2023-05-13T08:33:24.009Z,20.92
2023-05-13T08:34:26.089Z,20.90
2023-05-13T08:35:28.993Z,20.86
2023-05-13T08:36:31.573Z,20.87
2023-05-13T08:37:33.560Z,20.89
2023-05-13T08:38:35.528Z,20.90
2023-05-13T08:39:37.605Z,20.93
2023-05-13T08:40:41.463Z,20.95
2023-05-13T08:41:44.243Z,20.99
2023-05-13T08:42:47.046Z,21.00
2023-05-13T08:43:49.617Z,21.01
2023-05-13T08:44:51.884Z,21.00
2023-05-13T08:45:55.252Z,20.98
2023-05-13T08:48:10.762Z,21.08
2023-05-13T08:49:13.270Z,21.00
2023-05-13T08:50:15.552Z,21.01
2023-05-13T08:51:18.444Z,21.04
2023-05-13T08:52:20.442Z,21.06
2023-05-13T08:53:22.437Z,21.06
2023-05-13T08:54:24.675Z,21.08
2023-05-13T08:55:26.762Z,21.11
2023-05-13T08:56:28.910Z,21.14
2023-05-13T08:57:30.947Z,21.15
2023-05-13T08:58:32.936Z,21.14
2023-05-13T08:59:34.847Z,21.15
2023-05-13T09:00:37.215Z,21.18
2023-05-13T09:01:39.393Z,21.17
2023-05-13T09:02:42.051Z,21.15
2023-05-13T09:03:54.236Z,21.14
2023-05-13T09:04:56.608Z,21.15
2023-05-13T09:06:02.060Z,21.15
2023-05-13T09:07:07.794Z,21.19
2023-05-13T09:08:09.959Z,21.21
2023-05-13T09:09:12.034Z,21.23
2023-05-13T09:10:15.137Z,21.24
2023-05-13T09:11:17.011Z,21.28
2023-05-13T09:12:48.150Z,21.30
2023-05-13T09:14:00.479Z,21.31
2023-05-13T09:15:05.897Z,21.32
2023-05-13T09:16:08.334Z,21.32
2023-05-13T09:17:10.747Z,21.32
2023-05-13T09:18:12.976Z,21.33
2023-05-13T09:19:16.324Z,21.28
2023-05-13T09:20:20.066Z,21.26
2023-05-13T09:21:26.107Z,21.28
2023-05-13T09:22:28.252Z,21.28
2023-05-13T09:23:30.546Z,21.29
2023-05-13T09:24:33.607Z,21.34
2023-05-13T09:25:38.618Z,21.39
2023-05-13T09:26:41.587Z,21.44
2023-05-13T09:27:52.641Z,21.49
2023-05-13T09:29:18.865Z,21.53
2023-05-13T09:30:21.551Z,21.58
2023-05-13T09:31:35.153Z,21.63
2023-05-13T09:32:38.538Z,21.68
2023-05-13T09:33:44.528Z,21.73
2023-05-13T09:34:47.434Z,21.81
2023-05-13T09:35:50.850Z,21.94
2023-05-13T09:37:03.649Z,22.05
2023-05-13T09:40:59.451Z,22.45
2023-05-13T09:42:04.291Z,22.43
2023-05-13T09:43:05.940Z,22.50
2023-05-13T09:44:07.979Z,22.50
2023-05-13T09:45:13.721Z,22.50
2023-05-13T09:46:16.134Z,22.45
2023-05-13T09:47:18.712Z,22.37
2023-05-13T09:49:31.019Z,22.30
2023-05-13T09:50:33.673Z,22.15
2023-05-13T09:51:35.622Z,22.07
2023-05-13T09:52:38.170Z,22.04
2023-05-13T09:53:40.189Z,22.01
2023-05-13T09:54:42.203Z,22.08
2023-05-13T09:55:52.261Z,22.11
2023-05-13T09:58:26.202Z,22.12
2023-05-13T09:59:33.254Z,21.98
2023-05-13T10:00:37.478Z,21.97
2023-05-13T10:01:39.972Z,21.90
2023-05-13T10:02:42.157Z,21.89
2023-05-13T10:03:44.232Z,21.91
2023-05-13T10:04:46.503Z,21.96
2023-05-13T10:05:48.499Z,21.99
2023-05-13T10:06:50.790Z,22.01
2023-05-13T10:07:52.808Z,22.03
2023-05-13T10:08:59.444Z,22.04
2023-05-13T10:10:02.404Z,22.07
2023-05-13T10:11:05.961Z,22.10
2023-05-13T10:12:09.767Z,22.10
2023-05-13T10:13:13.810Z,22.16
2023-05-13T10:14:15.962Z,22.23
2023-05-13T10:15:18.174Z,22.29
2023-05-13T10:16:23.213Z,22.33
2023-05-13T10:17:25.413Z,22.37
2023-05-13T10:18:27.609Z,22.40
2023-05-13T10:19:31.590Z,22.46
2023-05-13T10:20:34.125Z,22.43
2023-05-13T10:21:36.151Z,22.48
2023-05-13T10:22:40.172Z,22.53
2023-05-13T10:23:42.439Z,22.57
2023-05-13T10:24:44.728Z,22.61
2023-05-13T10:25:47.435Z,22.60
2023-05-13T10:26:50.826Z,22.57
2023-05-13T10:27:52.964Z,22.54
2023-05-13T10:28:55.121Z,22.55
2023-05-13T10:29:57.935Z,22.49
2023-05-13T10:31:00.214Z,22.49
2023-05-13T10:32:03.394Z,22.49
2023-05-13T10:33:05.996Z,22.44
2023-05-13T10:34:08.405Z,22.44
2023-05-13T10:35:13.082Z,22.40
2023-05-13T10:36:25.209Z,22.40
2023-05-13T10:37:46.222Z,22.42
2023-05-13T10:41:27.601Z,22.57
2023-05-13T10:42:39.439Z,22.52
2023-05-13T10:43:41.379Z,22.56
2023-05-13T10:44:43.434Z,22.63
2023-05-13T10:45:49.820Z,22.65
2023-05-13T10:46:52.193Z,22.69
2023-05-13T10:47:54.913Z,22.75
2023-05-13T10:48:58.974Z,22.82
2023-05-13T10:50:06.584Z,22.81
2023-05-13T10:51:09.587Z,22.84
2023-05-13T10:52:13.658Z,22.83
2023-05-13T10:53:23.893Z,22.87
2023-05-13T10:54:25.904Z,22.92
2023-05-13T10:55:27.918Z,22.94
2023-05-13T10:56:30.399Z,22.99
